createdAt,value
2022-08-03T00:02:19.061Z,8.60
2022-08-03T00:04:47.817Z,8.30
2022-08-03T00:07:16.544Z,8.60
2022-08-03T00:09:44.810Z,9.10
2022-08-03T00:12:13.298Z,9.10
2022-08-03T00:14:42.470Z,8.90
2022-08-03T00:17:10.779Z,8.50
2022-08-03T00:19:38.975Z,9.10
2022-08-03T00:22:07.555Z,10.60
2022-08-03T00:24:35.971Z,9.40
2022-08-03T00:27:04.368Z,9.80
2022-08-03T00:29:33.090Z,9.70
2022-08-03T00:32:21.402Z,9.00
2022-08-03T00:34:57.519Z,8.30
2022-08-03T00:37:40.764Z,9.30
2022-08-03T00:40:13.923Z,8.70
2022-08-03T00:42:50.413Z,8.70
2022-08-03T00:45:19.400Z,8.90
2022-08-03T00:47:47.908Z,9.30
2022-08-03T00:50:17.523Z,9.50
2022-08-03T00:52:46.734Z,9.30
2022-08-03T00:55:15.320Z,9.20
2022-08-03T00:57:43.825Z,9.10
2022-08-03T01:00:15.092Z,8.30
2022-08-03T01:02:43.307Z,9.20
2022-08-03T01:05:12.317Z,9.10
2022-08-03T01:08:02.202Z,8.90
2022-08-03T01:10:37.343Z,8.50
2022-08-03T01:14:01.433Z,8.50
2022-08-03T01:16:14.555Z,9.20
2022-08-03T01:18:47.403Z,9.30
2022-08-03T01:21:20.724Z,8.10
2022-08-03T01:24:02.292Z,8.40
2022-08-03T01:26:55.275Z,9.40
2022-08-03T01:29:51.817Z,9.40
2022-08-03T01:32:52.446Z,9.80
2022-08-03T01:35:12.865Z,9.50
2022-08-03T01:37:43.807Z,9.50
2022-08-03T01:40:13.587Z,9.70
2022-08-03T01:42:42.698Z,9.50
2022-08-03T01:45:13.387Z,9.90
2022-08-03T01:47:42.518Z,10.10
2022-08-03T01:50:12.157Z,10.60
2022-08-03T01:52:42.112Z,10.40
2022-08-03T01:55:11.971Z,10.00
2022-08-03T01:58:05.439Z,10.10
2022-08-03T02:00:30.492Z,9.80
2022-08-03T02:02:58.981Z,9.40
2022-08-03T02:05:27.918Z,9.30
2022-08-03T02:07:57.159Z,10.30
2022-08-03T02:10:35.606Z,9.70
2022-08-03T02:13:07.037Z,9.30
2022-08-03T02:15:36.909Z,10.40
2022-08-03T02:18:07.716Z,9.90
2022-08-03T02:20:38.361Z,9.90
2022-08-03T02:23:07.221Z,9.90
2022-08-03T02:25:41.625Z,9.90
2022-08-03T02:28:13.487Z,10.70
2022-08-03T02:30:44.061Z,9.80
2022-08-03T02:33:17.234Z,9.60
2022-08-03T02:35:45.978Z,10.90
2022-08-03T02:38:15.306Z,10.50
2022-08-03T02:40:44.964Z,10.30
2022-08-03T02:43:18.415Z,10.90
2022-08-03T02:45:49.488Z,10.00
2022-08-03T02:48:20.455Z,10.50
2022-08-03T02:50:49.110Z,11.10
2022-08-03T02:53:18.239Z,10.30
2022-08-03T02:55:48.858Z,10.60
2022-08-03T02:58:20.715Z,10.10
2022-08-03T03:00:49.381Z,10.40
2022-08-03T03:03:17.917Z,10.60
2022-08-03T03:05:52.665Z,10.30
2022-08-03T03:08:28.608Z,10.70
2022-08-03T03:10:59.917Z,10.60
2022-08-03T03:13:29.353Z,10.70
2022-08-03T03:16:00.771Z,10.60
2022-08-03T03:18:29.738Z,10.60
2022-08-03T03:20:58.840Z,10.50
2022-08-03T03:23:28.503Z,10.80
2022-08-03T03:25:58.367Z,11.70
2022-08-03T03:28:27.462Z,10.80
2022-08-03T03:30:55.739Z,10.60
2022-08-03T03:33:24.223Z,11.00
2022-08-03T03:35:52.531Z,11.40
2022-08-03T03:38:21.083Z,10.90
2022-08-03T03:40:49.759Z,11.50
2022-08-03T03:43:18.396Z,10.40
2022-08-03T03:45:48.194Z,12.00
2022-08-03T03:48:16.612Z,11.60
2022-08-03T03:50:45.449Z,12.70
2022-08-03T03:53:14.352Z,12.40
2022-08-03T03:55:58.937Z,11.80
2022-08-03T03:58:32.217Z,12.30
2022-08-03T04:01:00.927Z,12.50
2022-08-03T04:03:29.895Z,13.00
2022-08-03T04:06:17.004Z,13.00
2022-08-03T04:09:03.691Z,11.30
2022-08-03T04:11:36.687Z,12.40
2022-08-03T04:14:08.311Z,12.20
2022-08-03T04:16:43.657Z,12.70
2022-08-03T04:19:18.550Z,14.20
2022-08-03T04:21:53.164Z,13.20
2022-08-03T04:24:26.885Z,13.40
2022-08-03T04:26:56.967Z,13.00
2022-08-03T04:29:26.751Z,14.30
2022-08-03T04:31:55.819Z,14.40
2022-08-03T04:34:24.230Z,13.80
2022-08-03T04:36:56.475Z,14.70
2022-08-03T04:39:26.464Z,13.90
2022-08-03T04:42:07.344Z,14.20
2022-08-03T04:44:39.208Z,14.70
2022-08-03T04:47:07.719Z,15.50
2022-08-03T04:49:37.229Z,15.60
2022-08-03T04:52:08.088Z,16.00
2022-08-03T04:54:41.278Z,17.10
2022-08-03T04:57:10.598Z,17.30
2022-08-03T04:59:56.841Z,17.50
2022-08-03T05:02:30.937Z,17.70
2022-08-03T05:04:59.359Z,17.90
2022-08-03T05:07:35.584Z,18.60
2022-08-03T05:10:15.900Z,19.60
2022-08-03T05:12:46.152Z,20.50
2022-08-03T05:15:15.407Z,20.50
2022-08-03T05:17:43.787Z,21.50
2022-08-03T05:20:12.450Z,22.50
2022-08-03T05:22:40.859Z,22.60
2022-08-03T05:25:09.628Z,23.00
2022-08-03T05:27:48.405Z,23.00
2022-08-03T05:30:32.424Z,22.90
2022-08-03T05:33:04.286Z,23.50
2022-08-03T05:36:02.640Z,22.80
2022-08-03T05:38:28.661Z,23.50
2022-08-03T05:41:20.029Z,23.30
2022-08-03T05:43:52.282Z,24.80
2022-08-03T05:46:21.089Z,25.40
2022-08-03T05:48:49.481Z,24.30
2022-08-03T05:51:18.246Z,26.30
2022-08-03T05:53:47.019Z,25.00
2022-08-03T05:56:16.690Z,24.30
2022-08-03T05:58:46.878Z,24.40
2022-08-03T06:01:15.663Z,25.90
2022-08-03T06:03:44.054Z,25.20
2022-08-03T06:06:12.486Z,25.90
2022-08-03T06:08:40.895Z,24.90
2022-08-03T06:11:09.629Z,24.80
2022-08-03T06:13:38.092Z,25.20
2022-08-03T06:16:06.826Z,24.20
2022-08-03T06:18:35.117Z,24.40
2022-08-03T06:21:11.047Z,24.50
2022-08-03T06:23:53.251Z,32.70
2022-08-03T06:26:28.012Z,25.80
2022-08-03T06:28:56.499Z,23.30
2022-08-03T06:31:32.342Z,22.80
2022-08-03T06:34:31.092Z,23.30
2022-08-03T06:36:50.763Z,22.30
2022-08-03T06:39:19.016Z,23.40
2022-08-03T06:41:47.373Z,23.30
2022-08-03T06:44:15.858Z,22.50
2022-08-03T06:46:44.325Z,22.80
2022-08-03T06:49:15.042Z,21.90
2022-08-03T06:52:04.476Z,22.10
2022-08-03T06:54:33.186Z,22.60
2022-08-03T06:57:01.940Z,22.70
2022-08-03T07:00:10.527Z,21.80
2022-08-03T07:02:19.346Z,22.10
2022-08-03T07:04:47.990Z,21.50
2022-08-03T07:07:16.902Z,22.70
2022-08-03T07:09:57.808Z,23.90
2022-08-03T07:12:28.815Z,22.10
2022-08-03T07:15:01.139Z,21.60
2022-08-03T07:17:38.081Z,22.90
2022-08-03T07:20:18.828Z,22.00
2022-08-03T07:22:50.323Z,23.90
2022-08-03T07:25:20.040Z,22.20
2022-08-03T07:27:51.893Z,22.40
2022-08-03T07:30:26.104Z,22.00
2022-08-03T07:32:57.773Z,22.90
2022-08-03T07:35:28.231Z,21.00
2022-08-03T07:37:56.680Z,22.10
2022-08-03T07:40:26.999Z,21.70
2022-08-03T07:43:02.914Z,21.50
2022-08-03T07:45:31.367Z,22.90
2022-08-03T07:47:59.565Z,23.40
2022-08-03T07:50:28.818Z,20.40
2022-08-03T07:52:59.234Z,21.80
2022-08-03T07:55:28.208Z,21.30
2022-08-03T07:58:04.169Z,19.60
2022-08-03T08:00:34.022Z,20.80
2022-08-03T08:03:02.831Z,19.60
2022-08-03T08:05:31.311Z,19.90
2022-08-03T08:08:07.730Z,19.80
2022-08-03T08:10:37.915Z,18.60
2022-08-03T08:13:09.677Z,19.70
2022-08-03T08:15:46.261Z,20.00
2022-08-03T08:18:17.372Z,18.00
2022-08-03T08:20:46.374Z,19.70
2022-08-03T08:23:42.799Z,17.40
2022-08-03T08:26:13.914Z,18.40
2022-08-03T08:28:49.022Z,17.10
2022-08-03T08:31:19.027Z,16.30
2022-08-03T08:34:03.499Z,16.10
2022-08-03T08:36:33.703Z,14.60
2022-08-03T08:39:03.101Z,15.10
2022-08-03T08:41:34.140Z,13.50
2022-08-03T08:44:04.050Z,11.20
2022-08-03T08:50:38.016Z,13.00
2022-08-03T08:53:17.344Z,11.80
2022-08-03T08:55:56.952Z,9.50
2022-08-03T08:58:31.094Z,9.10
2022-08-03T09:01:02.523Z,8.80
2022-08-03T09:03:33.963Z,6.20
2022-08-03T09:06:02.735Z,4.90
2022-08-03T09:08:32.141Z,5.90
2022-08-03T09:11:02.025Z,5.70
2022-08-03T09:13:30.910Z,5.00
2022-08-03T09:16:13.908Z,6.10
2022-08-03T09:18:43.319Z,5.60
2022-08-03T09:21:36.272Z,4.70
2022-08-03T09:24:13.031Z,6.80
2022-08-03T09:26:53.962Z,5.50
2022-08-03T09:32:03.159Z,5.80
2022-08-03T09:34:32.090Z,8.00
2022-08-03T09:37:00.676Z,6.70
2022-08-03T09:39:41.802Z,6.00
2022-08-03T09:42:14.780Z,7.30
2022-08-03T09:45:04.218Z,7.00
2022-08-03T09:47:35.874Z,5.10
2022-08-03T09:50:07.335Z,5.60
2022-08-03T09:52:50.127Z,5.50
2022-08-03T09:56:05.127Z,6.30
2022-08-03T09:58:13.705Z,5.40
2022-08-03T10:00:56.814Z,5.30
2022-08-03T10:04:03.163Z,5.20
2022-08-03T10:06:30.126Z,5.80
2022-08-03T10:09:10.346Z,5.30
2022-08-03T10:11:42.109Z,5.20
2022-08-03T10:14:18.603Z,5.10
2022-08-03T10:16:58.336Z,5.10
2022-08-03T10:19:27.238Z,5.10
2022-08-03T10:21:57.730Z,5.80
2022-08-03T10:24:28.572Z,5.50
2022-08-03T10:27:03.501Z,4.90
2022-08-03T10:29:49.176Z,5.20
2022-08-03T10:32:21.947Z,4.50
2022-08-03T10:35:26.446Z,4.70
2022-08-03T10:37:59.269Z,4.70
2022-08-03T10:43:41.459Z,4.30
2022-08-03T10:46:15.836Z,4.70
2022-08-03T10:49:02.201Z,4.00
2022-08-03T10:51:48.460Z,3.70
2022-08-03T10:55:03.300Z,4.00
2022-08-03T10:58:05.742Z,4.30
2022-08-03T11:00:53.665Z,4.30
2022-08-03T11:03:22.146Z,4.80
2022-08-03T11:05:53.200Z,5.10
2022-08-03T11:08:30.540Z,5.00
2022-08-03T11:11:02.046Z,4.90
2022-08-03T11:13:33.391Z,4.20
2022-08-03T11:16:22.042Z,4.40
2022-08-03T11:19:01.156Z,3.60
2022-08-03T11:21:56.533Z,4.80
2022-08-03T11:24:57.509Z,4.00
2022-08-03T11:27:32.922Z,7.20
2022-08-03T11:30:06.137Z,4.30
2022-08-03T11:32:57.862Z,4.30
2022-08-03T11:35:28.897Z,3.60
2022-08-03T11:38:11.180Z,4.10
2022-08-03T11:40:43.239Z,4.40
2022-08-03T11:43:44.815Z,4.00
2022-08-03T11:46:28.555Z,4.10
2022-08-03T11:49:09.845Z,4.00
2022-08-03T11:51:40.539Z,4.20
2022-08-03T11:54:10.856Z,4.90
2022-08-03T11:56:46.589Z,4.20
2022-08-03T11:59:21.766Z,3.90
2022-08-03T12:01:50.974Z,4.40
2022-08-03T12:04:19.575Z,3.90
2022-08-03T12:07:00.603Z,4.50
2022-08-03T12:09:37.267Z,4.40
2022-08-03T12:12:21.464Z,3.50
2022-08-03T12:14:59.925Z,3.70
2022-08-03T12:20:08.452Z,3.60
2022-08-03T12:25:38.869Z,3.20
2022-08-03T12:28:36.479Z,3.00
2022-08-03T12:31:11.410Z,3.60
2022-08-03T12:36:22.910Z,4.00
2022-08-03T12:38:59.228Z,3.30
2022-08-03T12:41:34.022Z,3.80
2022-08-03T12:44:03.659Z,3.40
2022-08-03T12:46:34.453Z,3.30
2022-08-03T12:49:08.671Z,3.20
2022-08-03T12:51:38.786Z,3.00
2022-08-03T12:54:07.269Z,2.80
2022-08-03T12:56:58.688Z,3.20
2022-08-03T13:00:59.935Z,3.60
2022-08-03T13:03:39.796Z,3.80
2022-08-03T13:06:15.951Z,3.40
2022-08-03T13:08:47.400Z,3.80
2022-08-03T13:11:52.518Z,3.80
2022-08-03T13:14:16.663Z,3.60
2022-08-03T13:16:50.377Z,3.60
2022-08-03T13:19:19.126Z,3.40
2022-08-03T13:22:01.690Z,3.40
2022-08-03T13:24:34.363Z,3.80
2022-08-03T13:28:12.469Z,3.40
2022-08-03T13:30:01.816Z,3.40
2022-08-03T13:32:30.804Z,3.20
2022-08-03T13:35:02.023Z,3.00
2022-08-03T13:37:35.506Z,3.30
2022-08-03T13:40:08.665Z,3.00
2022-08-03T13:43:02.019Z,3.30
2022-08-03T13:49:06.841Z,3.20
2022-08-03T13:52:02.963Z,3.60
2022-08-03T13:54:41.739Z,3.60
2022-08-03T13:58:11.637Z,3.80
2022-08-03T14:00:27.855Z,3.90
2022-08-03T14:03:15.354Z,4.00
2022-08-03T14:05:44.071Z,3.50
2022-08-03T14:08:12.763Z,3.50
2022-08-03T14:10:43.388Z,3.40
2022-08-03T14:13:12.423Z,3.80
2022-08-03T14:15:41.177Z,3.80
2022-08-03T14:18:12.998Z,4.30
2022-08-03T14:20:50.305Z,4.10
2022-08-03T14:23:22.761Z,4.50
2022-08-03T14:25:52.926Z,4.20
2022-08-03T14:28:23.568Z,4.10
2022-08-03T14:30:53.518Z,3.90
2022-08-03T14:33:22.068Z,4.00
2022-08-03T14:35:51.520Z,4.70
2022-08-03T14:38:20.180Z,4.00
2022-08-03T14:40:49.144Z,3.90
2022-08-03T14:43:18.121Z,3.70
2022-08-03T14:45:46.643Z,3.70
2022-08-03T14:50:31.010Z,3.70
2022-08-03T14:51:05.095Z,3.50
2022-08-03T14:53:34.705Z,3.80
2022-08-03T14:56:07.792Z,4.00
2022-08-03T14:58:39.043Z,3.80
2022-08-03T15:02:03.056Z,3.60
2022-08-03T15:03:56.255Z,3.90
2022-08-03T15:06:24.875Z,3.70
2022-08-03T15:09:21.524Z,4.20
2022-08-03T15:11:44.535Z,4.20
2022-08-03T15:14:14.720Z,3.80
2022-08-03T15:16:46.077Z,3.60
2022-08-03T15:20:03.567Z,3.30
2022-08-03T15:22:03.816Z,3.80
2022-08-03T15:24:32.352Z,3.80
2022-08-03T15:27:01.186Z,4.20
2022-08-03T15:30:07.793Z,4.10
2022-08-03T15:32:23.647Z,3.50
2022-08-03T15:34:55.276Z,3.40
2022-08-03T15:37:24.956Z,3.90
2022-08-03T15:39:59.089Z,3.50
2022-08-03T15:42:29.364Z,3.90
2022-08-03T15:44:58.247Z,3.90
2022-08-03T15:47:26.593Z,3.80
2022-08-03T15:49:55.357Z,3.70
2022-08-03T15:52:23.962Z,3.80
2022-08-03T15:54:52.221Z,3.80
2022-08-03T15:57:20.841Z,4.00
2022-08-03T15:59:49.556Z,4.00
2022-08-03T16:02:17.883Z,4.00
2022-08-03T16:04:46.219Z,4.30
2022-08-03T16:07:15.178Z,4.40
2022-08-03T16:09:44.071Z,4.40
2022-08-03T16:12:15.772Z,4.90
2022-08-03T16:14:52.773Z,4.90
2022-08-03T16:17:23.771Z,5.00
2022-08-03T16:19:54.947Z,5.30
2022-08-03T16:22:23.892Z,5.10
2022-08-03T16:24:52.754Z,5.60
2022-08-03T16:27:37.593Z,5.10
2022-08-03T16:30:12.815Z,5.10
2022-08-03T16:32:41.157Z,5.40
2022-08-03T16:35:19.200Z,5.90
2022-08-03T16:37:56.296Z,8.80
2022-08-03T16:40:25.622Z,7.80
2022-08-03T16:42:54.513Z,6.00
2022-08-03T16:45:22.785Z,6.10
2022-08-03T16:48:01.449Z,6.20
2022-08-03T16:50:35.388Z,6.00
2022-08-03T16:53:06.264Z,6.70
2022-08-03T16:55:48.646Z,6.30
2022-08-03T16:58:34.335Z,5.90
2022-08-03T17:01:21.846Z,6.50
2022-08-03T17:04:03.675Z,6.00
2022-08-03T17:06:36.126Z,6.70
2022-08-03T17:09:10.075Z,5.20
2022-08-03T17:11:44.180Z,6.90
2022-08-03T17:14:16.915Z,6.90
2022-08-03T17:16:52.223Z,7.50
2022-08-03T17:19:23.492Z,7.40
2022-08-03T17:21:58.961Z,6.90
2022-08-03T17:24:32.243Z,6.70
2022-08-03T17:29:30.105Z,7.00
2022-08-03T17:31:58.689Z,6.30
2022-08-03T17:34:26.963Z,6.30
2022-08-03T17:37:04.512Z,6.70
2022-08-03T17:39:58.710Z,6.70
2022-08-03T17:42:30.441Z,7.10
2022-08-03T17:45:02.370Z,6.20
2022-08-03T17:47:42.421Z,6.80
2022-08-03T17:50:24.211Z,6.10
2022-08-03T17:53:07.569Z,6.00
2022-08-03T17:55:56.822Z,5.50
2022-08-03T17:58:41.651Z,5.50
2022-08-03T18:04:30.251Z,5.90
2022-08-03T18:07:11.976Z,6.20
2022-08-03T18:10:05.670Z,6.40
2022-08-03T18:12:39.531Z,9.70
2022-08-03T18:15:20.802Z,7.30
2022-08-03T18:17:55.093Z,7.30
2022-08-03T18:20:34.813Z,8.60
2022-08-03T18:23:10.921Z,8.00
2022-08-03T18:25:58.093Z,7.40
2022-08-03T18:32:00.445Z,7.30
2022-08-03T18:34:32.128Z,7.40
2022-08-03T18:36:56.078Z,8.10
2022-08-03T18:39:25.421Z,7.40
2022-08-03T18:41:54.375Z,9.40
2022-08-03T18:44:53.044Z,7.50
2022-08-03T18:47:26.723Z,8.10
2022-08-03T18:50:19.662Z,7.40
2022-08-03T18:52:54.712Z,7.70
2022-08-03T18:55:33.602Z,6.90
2022-08-03T18:58:17.533Z,7.40
2022-08-03T19:00:56.557Z,8.80
2022-08-03T19:03:42.951Z,7.30
2022-08-03T19:06:19.646Z,7.70
2022-08-03T19:09:00.379Z,8.10
2022-08-03T19:12:12.672Z,7.60
2022-08-03T19:14:30.349Z,8.30
2022-08-03T19:17:05.851Z,7.80
2022-08-03T19:19:43.501Z,9.00
2022-08-03T19:22:19.615Z,8.80
2022-08-03T19:24:48.871Z,8.10
2022-08-03T19:27:18.142Z,7.90
2022-08-03T19:32:39.041Z,11.00
2022-08-03T19:35:19.079Z,9.00
2022-08-03T19:37:56.942Z,8.00
2022-08-03T19:40:32.494Z,8.50
2022-08-03T19:43:07.109Z,9.10
2022-08-03T19:48:29.643Z,9.20
2022-08-03T19:50:59.103Z,8.80
2022-08-03T19:53:35.316Z,8.70
2022-08-03T19:56:06.126Z,9.30
2022-08-03T19:58:34.663Z,9.00
2022-08-03T20:01:21.107Z,8.60
2022-08-03T20:03:51.830Z,9.00
2022-08-03T20:06:23.159Z,9.90
2022-08-03T20:08:52.630Z,9.70
2022-08-03T20:11:28.626Z,10.90
2022-08-03T20:13:59.744Z,9.90
2022-08-03T20:16:28.023Z,9.60
2022-08-03T20:18:56.304Z,9.10
2022-08-03T20:21:25.615Z,10.20
2022-08-03T20:24:03.417Z,9.30
2022-08-03T20:26:53.253Z,9.90
2022-08-03T20:29:42.562Z,11.20
2022-08-03T20:32:17.980Z,10.40
2022-08-03T20:34:46.259Z,10.60
2022-08-03T20:37:18.322Z,9.80
2022-08-03T20:39:48.311Z,10.30
2022-08-03T20:42:21.472Z,10.70
2022-08-03T20:45:06.150Z,10.50
2022-08-03T20:47:36.004Z,10.60
2022-08-03T20:50:07.593Z,10.40
2022-08-03T20:52:43.784Z,10.10
2022-08-03T20:55:20.215Z,10.20
2022-08-03T20:58:07.730Z,10.90
2022-08-03T21:00:36.662Z,10.60
2022-08-03T21:03:06.168Z,10.60
2022-08-03T21:05:47.735Z,10.40
2022-08-03T21:08:18.699Z,10.80
2022-08-03T21:10:48.554Z,10.50
2022-08-03T21:12:58.148Z,8.00
2022-08-03T21:13:05.312Z,6.40
2022-08-03T21:13:09.487Z,7.70
2022-08-03T21:13:10.710Z,8.40
2022-08-03T21:16:11.630Z,10.30
2022-08-03T21:18:47.045Z,11.20
2022-08-03T21:21:17.749Z,11.40
2022-08-03T21:23:50.061Z,11.90
2022-08-03T21:26:19.937Z,11.60
2022-08-03T21:28:52.811Z,11.70
2022-08-03T21:31:24.463Z,11.60
2022-08-03T21:33:56.517Z,12.20
2022-08-03T21:36:26.871Z,12.20
2022-08-03T21:38:57.234Z,12.30
2022-08-03T21:41:27.927Z,11.60
2022-08-03T21:43:56.297Z,11.90
2022-08-03T21:46:25.892Z,12.50
2022-08-03T21:50:04.136Z,11.40
2022-08-03T21:51:49.899Z,11.80
2022-08-03T21:54:18.877Z,11.40
2022-08-03T21:56:48.410Z,11.50
2022-08-03T21:59:19.170Z,11.70
2022-08-03T22:01:51.532Z,10.00
2022-08-03T22:04:38.067Z,11.00
2022-08-03T22:07:13.069Z,9.80
2022-08-03T22:09:51.054Z,10.10
2022-08-03T22:12:24.813Z,9.20
2022-08-03T22:15:00.544Z,9.20
2022-08-03T22:17:54.957Z,9.20
2022-08-03T22:20:22.054Z,8.20
2022-08-03T22:22:55.284Z,8.80
2022-08-03T22:25:28.612Z,9.10
2022-08-03T22:27:59.701Z,9.10
2022-08-03T22:30:28.805Z,8.40
2022-08-03T22:32:57.792Z,8.60
2022-08-03T22:35:28.157Z,8.10
2022-08-03T22:37:58.250Z,10.00
2022-08-03T22:40:27.538Z,8.90
2022-08-03T22:42:57.067Z,8.80
2022-08-03T22:46:07.126Z,8.30
2022-08-03T22:48:17.406Z,9.00
2022-08-03T22:50:46.292Z,9.10
2022-08-03T22:53:19.930Z,8.80
2022-08-03T22:55:49.684Z,8.90
2022-08-03T22:58:20.325Z,8.70
2022-08-03T23:00:53.938Z,7.90
2022-08-03T23:03:25.189Z,8.70
2022-08-03T23:06:01.277Z,8.20
2022-08-03T23:08:34.281Z,9.10
2022-08-03T23:11:08.119Z,9.00
2022-08-03T23:13:37.073Z,9.30
2022-08-03T23:16:06.487Z,9.20
2022-08-03T23:18:37.869Z,10.30
2022-08-03T23:21:11.496Z,9.60
2022-08-03T23:23:44.447Z,9.20
2022-08-03T23:26:14.183Z,9.80
2022-08-03T23:28:46.027Z,9.40
2022-08-03T23:31:15.810Z,8.90
2022-08-03T23:33:45.318Z,9.50
2022-08-03T23:36:31.023Z,9.50
2022-08-03T23:39:03.030Z,10.20
2022-08-03T23:41:32.923Z,10.10
2022-08-03T23:44:01.733Z,10.00
2022-08-03T23:46:33.124Z,9.50
2022-08-03T23:49:01.540Z,10.00
2022-08-03T23:51:36.649Z,10.00
2022-08-03T23:54:19.511Z,10.00
2022-08-03T23:56:54.129Z,10.50
2022-08-03T23:59:31.090Z,11.10
